sensor_id;sensor_type;location;lat;lon;timestamp;temperature;humidity
64634;DHT22;51043;52.406;9.690;2023-08-08T00:00:01;12.60;99.90
64634;DHT22;51043;52.406;9.690;2023-08-08T00:02:31;12.60;99.90
64634;DHT22;51043;52.406;9.690;2023-08-08T00:05:00;12.70;99.90
64634;DHT22;51043;52.406;9.690;2023-08-08T00:07:29;12.70;99.90
64634;DHT22;51043;52.406;9.690;2023-08-08T00:09:57;12.80;99.90
64634;DHT22;51043;52.406;9.690;2023-08-08T00:12:25;12.70;99.90
64634;DHT22;51043;52.406;9.690;2023-08-08T00:14:53;12.70;99.90
64634;DHT22;51043;52.406;9.690;2023-08-08T00:17:21;12.80;99.90
64634;DHT22;51043;52.406;9.690;2023-08-08T00:19:49;12.80;99.90
64634;DHT22;51043;52.406;9.690;2023-08-08T00:22:19;12.90;99.90
64634;DHT22;51043;52.406;9.690;2023-08-08T00:24:47;13.00;99.90
64634;DHT22;51043;52.406;9.690;2023-08-08T00:27:15;12.90;99.90
64634;DHT22;51043;52.406;9.690;2023-08-08T00:29:43;12.90;99.90
64634;DHT22;51043;52.406;9.690;2023-08-08T00:32:12;12.90;99.90
64634;DHT22;51043;52.406;9.690;2023-08-08T00:34:41;12.90;99.90
64634;DHT22;51043;52.406;9.690;2023-08-08T00:37:09;12.90;99.90
64634;DHT22;51043;52.406;9.690;2023-08-08T00:39:40;13.00;99.90
64634;DHT22;51043;52.406;9.690;2023-08-08T00:42:12;12.90;99.90
64634;DHT22;51043;52.406;9.690;2023-08-08T00:44:40;12.90;99.90
64634;DHT22;51043;52.406;9.690;2023-08-08T00:47:09;12.90;99.90
64634;DHT22;51043;52.406;9.690;2023-08-08T00:49:37;12.90;99.90
64634;DHT22;51043;52.406;9.690;2023-08-08T00:52:06;12.90;99.90
64634;DHT22;51043;52.406;9.690;2023-08-08T00:54:35;12.80;99.90
64634;DHT22;51043;52.406;9.690;2023-08-08T00:57:05;12.80;99.90
64634;DHT22;51043;52.406;9.690;2023-08-08T00:59:33;12.80;99.90
64634;DHT22;51043;52.406;9.690;2023-08-08T01:02:02;12.90;99.90
64634;DHT22;51043;52.406;9.690;2023-08-08T01:04:32;12.80;99.90
64634;DHT22;51043;52.406;9.690;2023-08-08T01:07:06;12.90;99.90
64634;DHT22;51043;52.406;9.690;2023-08-08T01:09:39;12.90;99.90
64634;DHT22;51043;52.406;9.690;2023-08-08T01:12:11;12.90;99.90
64634;DHT22;51043;52.406;9.690;2023-08-08T01:14:43;12.90;99.90
64634;DHT22;51043;52.406;9.690;2023-08-08T01:17:12;12.80;99.90
64634;DHT22;51043;52.406;9.690;2023-08-08T01:19:41;12.80;99.90
64634;DHT22;51043;52.406;9.690;2023-08-08T01:22:15;12.90;99.90
64634;DHT22;51043;52.406;9.690;2023-08-08T01:24:50;12.90;99.90
64634;DHT22;51043;52.406;9.690;2023-08-08T01:27:18;12.90;99.90
64634;DHT22;51043;52.406;9.690;2023-08-08T01:29:46;12.80;99.90
64634;DHT22;51043;52.406;9.690;2023-08-08T01:32:15;12.90;99.90
64634;DHT22;51043;52.406;9.690;2023-08-08T01:34:43;12.90;99.90
64634;DHT22;51043;52.406;9.690;2023-08-08T01:37:14;12.90;99.90
64634;DHT22;51043;52.406;9.690;2023-08-08T01:39:46;12.90;99.90
64634;DHT22;51043;52.406;9.690;2023-08-08T01:42:16;12.90;99.90
64634;DHT22;51043;52.406;9.690;2023-08-08T01:44:46;12.90;99.90
64634;DHT22;51043;52.406;9.690;2023-08-08T01:47:15;13.00;99.90
64634;DHT22;51043;52.406;9.690;2023-08-08T01:49:43;13.00;99.90
64634;DHT22;51043;52.406;9.690;2023-08-08T01:52:11;13.00;99.90
64634;DHT22;51043;52.406;9.690;2023-08-08T01:54:39;13.00;99.90
64634;DHT22;51043;52.406;9.690;2023-08-08T01:57:09;13.00;99.90
64634;DHT22;51043;52.406;9.690;2023-08-08T01:59:38;13.10;99.90
64634;DHT22;51043;52.406;9.690;2023-08-08T02:02:06;13.20;99.90
64634;DHT22;51043;52.406;9.690;2023-08-08T02:04:34;13.20;99.90
64634;DHT22;51043;52.406;9.690;2023-08-08T02:07:03;13.20;99.90
64634;DHT22;51043;52.406;9.690;2023-08-08T02:09:31;13.10;99.90
64634;DHT22;51043;52.406;9.690;2023-08-08T02:11:59;13.20;99.90
64634;DHT22;51043;52.406;9.690;2023-08-08T02:14:28;13.20;99.90
64634;DHT22;51043;52.406;9.690;2023-08-08T02:16:57;13.20;99.90
64634;DHT22;51043;52.406;9.690;2023-08-08T02:19:25;13.20;99.90
64634;DHT22;51043;52.406;9.690;2023-08-08T02:21:53;13.20;99.90
64634;DHT22;51043;52.406;9.690;2023-08-08T02:24:21;13.20;99.90
64634;DHT22;51043;52.406;9.690;2023-08-08T02:26:49;13.30;99.90
64634;DHT22;51043;52.406;9.690;2023-08-08T02:29:17;13.20;99.90
64634;DHT22;51043;52.406;9.690;2023-08-08T02:31:45;13.20;99.90
64634;DHT22;51043;52.406;9.690;2023-08-08T02:34:15;13.20;99.90
64634;DHT22;51043;52.406;9.690;2023-08-08T02:36:43;13.20;99.90
64634;DHT22;51043;52.406;9.690;2023-08-08T02:39:11;13.20;99.90
64634;DHT22;51043;52.406;9.690;2023-08-08T02:41:39;13.20;99.90
64634;DHT22;51043;52.406;9.690;2023-08-08T02:44:07;13.20;99.90
64634;DHT22;51043;52.406;9.690;2023-08-08T02:46:36;13.20;99.90
64634;DHT22;51043;52.406;9.690;2023-08-08T02:49:06;13.20;99.90
64634;DHT22;51043;52.406;9.690;2023-08-08T02:51:35;13.20;99.90
64634;DHT22;51043;52.406;9.690;2023-08-08T02:54:03;13.20;99.90
64634;DHT22;51043;52.406;9.690;2023-08-08T02:56:34;13.20;99.90
64634;DHT22;51043;52.406;9.690;2023-08-08T02:59:02;13.10;99.90
64634;DHT22;51043;52.406;9.690;2023-08-08T03:01:31;13.10;99.90
64634;DHT22;51043;52.406;9.690;2023-08-08T03:04:01;13.10;99.90
64634;DHT22;51043;52.406;9.690;2023-08-08T03:06:30;13.10;99.90
64634;DHT22;51043;52.406;9.690;2023-08-08T03:08:59;13.20;99.90
64634;DHT22;51043;52.406;9.690;2023-08-08T03:11:28;13.20;99.90
64634;DHT22;51043;52.406;9.690;2023-08-08T03:13:56;13.10;99.90
64634;DHT22;51043;52.406;9.690;2023-08-08T03:16:25;13.20;99.90
64634;DHT22;51043;52.406;9.690;2023-08-08T03:18:55;13.20;99.90
64634;DHT22;51043;52.406;9.690;2023-08-08T03:21:23;13.30;99.90
64634;DHT22;51043;52.406;9.690;2023-08-08T03:23:51;13.40;99.90
64634;DHT22;51043;52.406;9.690;2023-08-08T03:26:21;13.40;99.90
64634;DHT22;51043;52.406;9.690;2023-08-08T03:28:49;13.40;99.90
64634;DHT22;51043;52.406;9.690;2023-08-08T03:31:25;13.50;99.90
64634;DHT22;51043;52.406;9.690;2023-08-08T03:33:54;13.50;99.90
64634;DHT22;51043;52.406;9.690;2023-08-08T03:36:23;13.40;99.90
64634;DHT22;51043;52.406;9.690;2023-08-08T03:38:51;13.40;99.90
64634;DHT22;51043;52.406;9.690;2023-08-08T03:41:21;13.40;99.90
64634;DHT22;51043;52.406;9.690;2023-08-08T03:43:49;13.40;99.90
64634;DHT22;51043;52.406;9.690;2023-08-08T03:46:18;13.40;99.90
64634;DHT22;51043;52.406;9.690;2023-08-08T03:48:46;13.40;99.90
64634;DHT22;51043;52.406;9.690;2023-08-08T03:51:14;13.40;99.90
64634;DHT22;51043;52.406;9.690;2023-08-08T03:53:42;13.40;99.90
64634;DHT22;51043;52.406;9.690;2023-08-08T03:56:11;13.30;99.90
64634;DHT22;51043;52.406;9.690;2023-08-08T03:58:41;13.40;99.90
64634;DHT22;51043;52.406;9.690;2023-08-08T04:01:09;13.40;99.90
64634;DHT22;51043;52.406;9.690;2023-08-08T04:03:39;13.40;99.90
64634;DHT22;51043;52.406;9.690;2023-08-08T04:06:07;13.40;99.90
64634;DHT22;51043;52.406;9.690;2023-08-08T04:08:35;13.40;99.90
64634;DHT22;51043;52.406;9.690;2023-08-08T04:11:07;13.40;99.90
64634;DHT22;51043;52.406;9.690;2023-08-08T04:13:35;13.50;99.90
64634;DHT22;51043;52.406;9.690;2023-08-08T04:16:05;13.60;99.90
64634;DHT22;51043;52.406;9.690;2023-08-08T04:18:34;13.60;99.90
64634;DHT22;51043;52.406;9.690;2023-08-08T04:21:02;13.60;99.90
64634;DHT22;51043;52.406;9.690;2023-08-08T04:23:31;13.70;99.90
64634;DHT22;51043;52.406;9.690;2023-08-08T04:25:59;13.70;99.90
64634;DHT22;51043;52.406;9.690;2023-08-08T04:28:27;13.70;99.90
64634;DHT22;51043;52.406;9.690;2023-08-08T04:30:55;13.70;99.90
64634;DHT22;51043;52.406;9.690;2023-08-08T04:36:30;13.70;99.90
64634;DHT22;51043;52.406;9.690;2023-08-08T04:38:58;13.70;99.90
64634;DHT22;51043;52.406;9.690;2023-08-08T04:41:26;13.70;99.90
64634;DHT22;51043;52.406;9.690;2023-08-08T04:43:54;13.70;99.90
64634;DHT22;51043;52.406;9.690;2023-08-08T04:46:23;13.80;99.90
64634;DHT22;51043;52.406;9.690;2023-08-08T04:48:51;13.70;99.90
64634;DHT22;51043;52.406;9.690;2023-08-08T04:51:19;13.80;99.90
64634;DHT22;51043;52.406;9.690;2023-08-08T04:53:49;13.80;99.90
64634;DHT22;51043;52.406;9.690;2023-08-08T04:56:17;13.80;99.90
64634;DHT22;51043;52.406;9.690;2023-08-08T04:58:45;13.80;99.90
64634;DHT22;51043;52.406;9.690;2023-08-08T05:01:13;13.80;99.90
64634;DHT22;51043;52.406;9.690;2023-08-08T05:03:44;13.80;99.90
64634;DHT22;51043;52.406;9.690;2023-08-08T05:06:12;13.90;99.90
64634;DHT22;51043;52.406;9.690;2023-08-08T05:08:40;13.90;99.90
64634;DHT22;51043;52.406;9.690;2023-08-08T05:11:10;13.90;99.90
64634;DHT22;51043;52.406;9.690;2023-08-08T05:13:38;13.90;99.90
64634;DHT22;51043;52.406;9.690;2023-08-08T05:16:07;13.90;99.90
64634;DHT22;51043;52.406;9.690;2023-08-08T05:18:35;14.00;99.90
64634;DHT22;51043;52.406;9.690;2023-08-08T05:21:03;14.00;99.90
64634;DHT22;51043;52.406;9.690;2023-08-08T05:23:31;14.00;99.90
64634;DHT22;51043;52.406;9.690;2023-08-08T05:25:59;14.00;99.90
64634;DHT22;51043;52.406;9.690;2023-08-08T05:28:29;14.00;99.90
64634;DHT22;51043;52.406;9.690;2023-08-08T05:30:57;14.10;99.90
64634;DHT22;51043;52.406;9.690;2023-08-08T05:33:26;14.10;99.90
64634;DHT22;51043;52.406;9.690;2023-08-08T05:35:54;14.20;99.90
64634;DHT22;51043;52.406;9.690;2023-08-08T05:38:22;14.30;99.90
64634;DHT22;51043;52.406;9.690;2023-08-08T05:40:50;14.30;99.90
64634;DHT22;51043;52.406;9.690;2023-08-08T05:43:18;14.40;99.90
64634;DHT22;51043;52.406;9.690;2023-08-08T05:45:49;14.50;99.90
64634;DHT22;51043;52.406;9.690;2023-08-08T05:48:17;14.60;99.90
64634;DHT22;51043;52.406;9.690;2023-08-08T05:50:45;14.60;99.90
64634;DHT22;51043;52.406;9.690;2023-08-08T05:53:14;14.70;99.90
64634;DHT22;51043;52.406;9.690;2023-08-08T05:55:42;14.80;99.90
64634;DHT22;51043;52.406;9.690;2023-08-08T05:58:12;14.90;99.90
64634;DHT22;51043;52.406;9.690;2023-08-08T06:00:40;15.00;99.90
64634;DHT22;51043;52.406;9.690;2023-08-08T06:03:10;15.00;99.90
64634;DHT22;51043;52.406;9.690;2023-08-08T06:05:39;15.10;99.90
64634;DHT22;51043;52.406;9.690;2023-08-08T06:08:07;15.20;99.90
64634;DHT22;51043;52.406;9.690;2023-08-08T06:10:38;15.20;99.90
64634;DHT22;51043;52.406;9.690;2023-08-08T06:13:06;15.30;99.90
64634;DHT22;51043;52.406;9.690;2023-08-08T06:15:35;15.20;99.90
64634;DHT22;51043;52.406;9.690;2023-08-08T06:18:04;15.20;99.90
64634;DHT22;51043;52.406;9.690;2023-08-08T06:20:34;15.20;99.90
64634;DHT22;51043;52.406;9.690;2023-08-08T06:23:02;15.20;99.90
64634;DHT22;51043;52.406;9.690;2023-08-08T06:25:30;15.30;99.90
64634;DHT22;51043;52.406;9.690;2023-08-08T06:28:04;15.40;99.90
64634;DHT22;51043;52.406;9.690;2023-08-08T06:30:33;15.70;99.90
64634;DHT22;51043;52.406;9.690;2023-08-08T06:33:01;15.90;99.90
64634;DHT22;51043;52.406;9.690;2023-08-08T06:35:30;16.00;99.90
64634;DHT22;51043;52.406;9.690;2023-08-08T06:38:00;15.90;99.90
64634;DHT22;51043;52.406;9.690;2023-08-08T06:40:28;15.90;99.90
64634;DHT22;51043;52.406;9.690;2023-08-08T06:43:06;16.00;99.90
64634;DHT22;51043;52.406;9.690;2023-08-08T06:45:36;16.10;99.90
64634;DHT22;51043;52.406;9.690;2023-08-08T06:48:05;16.30;99.90
64634;DHT22;51043;52.406;9.690;2023-08-08T06:50:33;16.30;99.90
64634;DHT22;51043;52.406;9.690;2023-08-08T06:53:03;16.50;99.90
64634;DHT22;51043;52.406;9.690;2023-08-08T06:55:36;16.60;99.90
64634;DHT22;51043;52.406;9.690;2023-08-08T06:58:05;16.60;99.90
64634;DHT22;51043;52.406;9.690;2023-08-08T07:00:33;16.60;99.90
64634;DHT22;51043;52.406;9.690;2023-08-08T07:03:01;16.60;99.90
64634;DHT22;51043;52.406;9.690;2023-08-08T07:05:29;16.70;99.90
64634;DHT22;51043;52.406;9.690;2023-08-08T07:07:58;16.80;99.90
64634;DHT22;51043;52.406;9.690;2023-08-08T07:10:28;16.70;99.90
64634;DHT22;51043;52.406;9.690;2023-08-08T07:12:56;16.70;99.90
64634;DHT22;51043;52.406;9.690;2023-08-08T07:15:25;16.90;99.90
64634;DHT22;51043;52.406;9.690;2023-08-08T07:17:53;17.00;99.90
64634;DHT22;51043;52.406;9.690;2023-08-08T07:20:21;17.20;99.90
64634;DHT22;51043;52.406;9.690;2023-08-08T07:22:49;17.30;99.90
64634;DHT22;51043;52.406;9.690;2023-08-08T07:25:17;17.30;99.90
64634;DHT22;51043;52.406;9.690;2023-08-08T07:27:47;17.30;99.90
64634;DHT22;51043;52.406;9.690;2023-08-08T07:30:15;17.30;99.90
64634;DHT22;51043;52.406;9.690;2023-08-08T07:32:43;17.60;99.90
64634;DHT22;51043;52.406;9.690;2023-08-08T07:35:12;17.80;99.90
64634;DHT22;51043;52.406;9.690;2023-08-08T07:37:41;17.80;99.90
64634;DHT22;51043;52.406;9.690;2023-08-08T07:40:14;18.20;99.90
64634;DHT22;51043;52.406;9.690;2023-08-08T07:42:44;18.70;99.90
64634;DHT22;51043;52.406;9.690;2023-08-08T07:45:14;18.90;99.90
64634;DHT22;51043;52.406;9.690;2023-08-08T07:47:42;18.40;99.90
64634;DHT22;51043;52.406;9.690;2023-08-08T07:50:11;18.50;99.90
64634;DHT22;51043;52.406;9.690;2023-08-08T07:52:40;18.70;99.90
64634;DHT22;51043;52.406;9.690;2023-08-08T07:55:09;18.70;99.90
64634;DHT22;51043;52.406;9.690;2023-08-08T07:57:37;18.60;99.90
64634;DHT22;51043;52.406;9.690;2023-08-08T08:00:07;18.50;99.90
64634;DHT22;51043;52.406;9.690;2023-08-08T08:02:42;18.60;99.90
64634;DHT22;51043;52.406;9.690;2023-08-08T08:05:11;18.50;99.90
64634;DHT22;51043;52.406;9.690;2023-08-08T08:07:41;19.10;99.90
64634;DHT22;51043;52.406;9.690;2023-08-08T08:10:11;19.70;99.90
64634;DHT22;51043;52.406;9.690;2023-08-08T08:12:41;20.60;99.90
64634;DHT22;51043;52.406;9.690;2023-08-08T08:15:10;20.30;99.90
64634;DHT22;51043;52.406;9.690;2023-08-08T08:17:38;20.40;99.90
64634;DHT22;51043;52.406;9.690;2023-08-08T08:20:13;20.10;99.90
64634;DHT22;51043;52.406;9.690;2023-08-08T08:22:41;19.50;99.90
64634;DHT22;51043;52.406;9.690;2023-08-08T08:25:10;19.50;99.90
64634;DHT22;51043;52.406;9.690;2023-08-08T08:27:38;20.10;99.90
64634;DHT22;51043;52.406;9.690;2023-08-08T08:30:09;20.80;99.90
64634;DHT22;51043;52.406;9.690;2023-08-08T08:32:39;20.70;99.90
64634;DHT22;51043;52.406;9.690;2023-08-08T08:35:09;19.70;99.90
64634;DHT22;51043;52.406;9.690;2023-08-08T08:37:40;20.20;99.90
64634;DHT22;51043;52.406;9.690;2023-08-08T08:40:09;21.00;99.90
64634;DHT22;51043;52.406;9.690;2023-08-08T08:42:38;21.20;99.90
64634;DHT22;51043;52.406;9.690;2023-08-08T08:45:09;21.10;99.90
64634;DHT22;51043;52.406;9.690;2023-08-08T08:47:37;21.20;99.90
64634;DHT22;51043;52.406;9.690;2023-08-08T08:50:09;20.70;99.90
64634;DHT22;51043;52.406;9.690;2023-08-08T08:52:38;20.00;99.90
64634;DHT22;51043;52.406;9.690;2023-08-08T08:55:08;19.10;99.90
64634;DHT22;51043;52.406;9.690;2023-08-08T08:57:37;18.30;99.90
64634;DHT22;51043;52.406;9.690;2023-08-08T09:00:08;17.80;99.90
64634;DHT22;51043;52.406;9.690;2023-08-08T09:02:39;17.50;99.90
64634;DHT22;51043;52.406;9.690;2023-08-08T09:05:13;17.60;99.90
64634;DHT22;51043;52.406;9.690;2023-08-08T09:07:43;17.60;99.90
64634;DHT22;51043;52.406;9.690;2023-08-08T09:10:14;17.70;99.90
64634;DHT22;51043;52.406;9.690;2023-08-08T09:12:43;17.60;99.90
64634;DHT22;51043;52.406;9.690;2023-08-08T09:15:12;18.50;99.90
64634;DHT22;51043;52.406;9.690;2023-08-08T09:17:41;19.30;99.90
64634;DHT22;51043;52.406;9.690;2023-08-08T09:20:14;19.20;99.90
64634;DHT22;51043;52.406;9.690;2023-08-08T09:22:42;19.30;99.90
64634;DHT22;51043;52.406;9.690;2023-08-08T09:25:13;19.10;99.90
64634;DHT22;51043;52.406;9.690;2023-08-08T09:27:41;18.50;99.90
64634;DHT22;51043;52.406;9.690;2023-08-08T09:30:10;18.10;99.90
64634;DHT22;51043;52.406;9.690;2023-08-08T09:32:39;17.80;99.90
64634;DHT22;51043;52.406;9.690;2023-08-08T09:35:08;17.50;99.90
64634;DHT22;51043;52.406;9.690;2023-08-08T09:37:37;17.40;99.90
64634;DHT22;51043;52.406;9.690;2023-08-08T09:40:07;17.40;99.90
64634;DHT22;51043;52.406;9.690;2023-08-08T09:42:40;17.70;99.90
64634;DHT22;51043;52.406;9.690;2023-08-08T09:45:09;18.20;99.90
64634;DHT22;51043;52.406;9.690;2023-08-08T09:47:38;18.40;99.90
64634;DHT22;51043;52.406;9.690;2023-08-08T09:50:07;18.40;99.90
64634;DHT22;51043;52.406;9.690;2023-08-08T09:52:36;18.30;99.90
64634;DHT22;51043;52.406;9.690;2023-08-08T09:55:06;18.10;99.90
64634;DHT22;51043;52.406;9.690;2023-08-08T09:57:34;17.60;99.90
64634;DHT22;51043;52.406;9.690;2023-08-08T10:00:05;17.10;99.90
64634;DHT22;51043;52.406;9.690;2023-08-08T10:02:38;17.00;99.90
64634;DHT22;51043;52.406;9.690;2023-08-08T10:05:08;16.80;99.90
64634;DHT22;51043;52.406;9.690;2023-08-08T10:07:39;16.40;99.90
64634;DHT22;51043;52.406;9.690;2023-08-08T10:10:09;16.20;99.90
64634;DHT22;51043;52.406;9.690;2023-08-08T10:12:38;16.10;99.90
64634;DHT22;51043;52.406;9.690;2023-08-08T10:15:12;17.40;99.90
64634;DHT22;51043;52.406;9.690;2023-08-08T10:17:41;18.80;99.90
64634;DHT22;51043;52.406;9.690;2023-08-08T10:20:11;20.40;99.90
64634;DHT22;51043;52.406;9.690;2023-08-08T10:22:43;21.40;99.90
64634;DHT22;51043;52.406;9.690;2023-08-08T10:25:23;22.60;99.90
64634;DHT22;51043;52.406;9.690;2023-08-08T10:28:02;23.60;99.90
64634;DHT22;51043;52.406;9.690;2023-08-08T10:30:47;23.50;99.90
64634;DHT22;51043;52.406;9.690;2023-08-08T10:33:17;21.90;99.90
64634;DHT22;51043;52.406;9.690;2023-08-08T10:35:59;21.00;99.90
64634;DHT22;51043;52.406;9.690;2023-08-08T10:38:40;20.70;99.90
64634;DHT22;51043;52.406;9.690;2023-08-08T10:41:13;21.30;99.90
64634;DHT22;51043;52.406;9.690;2023-08-08T10:43:48;20.90;99.90
64634;DHT22;51043;52.406;9.690;2023-08-08T10:46:25;20.90;99.90
64634;DHT22;51043;52.406;9.690;2023-08-08T10:48:54;21.60;99.90
64634;DHT22;51043;52.406;9.690;2023-08-08T10:51:33;22.90;99.90
64634;DHT22;51043;52.406;9.690;2023-08-08T10:54:04;23.80;99.90
64634;DHT22;51043;52.406;9.690;2023-08-08T10:56:34;24.00;99.90
64634;DHT22;51043;52.406;9.690;2023-08-08T10:59:13;24.30;99.90
64634;DHT22;51043;52.406;9.690;2023-08-08T11:01:45;25.50;99.90
64634;DHT22;51043;52.406;9.690;2023-08-08T11:04:15;25.20;99.90
64634;DHT22;51043;52.406;9.690;2023-08-08T11:06:43;23.90;99.90
64634;DHT22;51043;52.406;9.690;2023-08-08T11:09:12;22.90;99.90
64634;DHT22;51043;52.406;9.690;2023-08-08T11:11:42;21.80;99.90
64634;DHT22;51043;52.406;9.690;2023-08-08T11:14:14;21.30;99.90
64634;DHT22;51043;52.406;9.690;2023-08-08T11:16:46;20.70;99.90
64634;DHT22;51043;52.406;9.690;2023-08-08T11:19:14;20.20;99.90
64634;DHT22;51043;52.406;9.690;2023-08-08T11:21:45;20.60;99.90
64634;DHT22;51043;52.406;9.690;2023-08-08T11:24:13;22.20;99.90
64634;DHT22;51043;52.406;9.690;2023-08-08T11:26:42;22.80;99.90
64634;DHT22;51043;52.406;9.690;2023-08-08T11:29:12;22.30;99.90
64634;DHT22;51043;52.406;9.690;2023-08-08T11:31:41;22.10;99.90
64634;DHT22;51043;52.406;9.690;2023-08-08T11:34:11;21.40;99.90
64634;DHT22;51043;52.406;9.690;2023-08-08T11:36:45;20.60;99.90
64634;DHT22;51043;52.406;9.690;2023-08-08T11:39:17;20.20;99.90
64634;DHT22;51043;52.406;9.690;2023-08-08T11:41:49;20.60;99.90
64634;DHT22;51043;52.406;9.690;2023-08-08T11:44:25;20.50;99.90
64634;DHT22;51043;52.406;9.690;2023-08-08T11:47:05;19.90;99.90
64634;DHT22;51043;52.406;9.690;2023-08-08T11:50:19;19.30;99.90
64634;DHT22;51043;52.406;9.690;2023-08-08T11:52:47;18.60;99.90
64634;DHT22;51043;52.406;9.690;2023-08-08T11:55:17;18.20;99.90
64634;DHT22;51043;52.406;9.690;2023-08-08T11:57:49;18.20;99.90
64634;DHT22;51043;52.406;9.690;2023-08-08T12:00:20;18.60;99.90
64634;DHT22;51043;52.406;9.690;2023-08-08T12:02:48;19.50;99.90
64634;DHT22;51043;52.406;9.690;2023-08-08T12:05:20;19.90;99.90
64634;DHT22;51043;52.406;9.690;2023-08-08T12:07:50;19.90;99.90
64634;DHT22;51043;52.406;9.690;2023-08-08T12:10:20;20.00;99.90
64634;DHT22;51043;52.406;9.690;2023-08-08T12:12:53;19.90;99.90
64634;DHT22;51043;52.406;9.690;2023-08-08T12:15:27;19.90;99.90
64634;DHT22;51043;52.406;9.690;2023-08-08T12:17:59;19.80;99.90
64634;DHT22;51043;52.406;9.690;2023-08-08T12:20:32;20.00;99.90
64634;DHT22;51043;52.406;9.690;2023-08-08T12:23:00;21.00;99.90
64634;DHT22;51043;52.406;9.690;2023-08-08T12:25:29;21.70;99.90
64634;DHT22;51043;52.406;9.690;2023-08-08T12:27:57;21.40;99.90
64634;DHT22;51043;52.406;9.690;2023-08-08T12:30:25;21.10;99.90
64634;DHT22;51043;52.406;9.690;2023-08-08T12:32:53;20.70;99.90
64634;DHT22;51043;52.406;9.690;2023-08-08T12:35:22;20.20;99.90
64634;DHT22;51043;52.406;9.690;2023-08-08T12:37:54;19.60;99.90
64634;DHT22;51043;52.406;9.690;2023-08-08T12:40:22;19.20;99.90
64634;DHT22;51043;52.406;9.690;2023-08-08T12:42:52;18.90;99.90
64634;DHT22;51043;52.406;9.690;2023-08-08T12:45:20;19.20;99.90
64634;DHT22;51043;52.406;9.690;2023-08-08T12:47:48;19.30;99.90
64634;DHT22;51043;52.406;9.690;2023-08-08T12:50:20;19.50;99.90
64634;DHT22;51043;52.406;9.690;2023-08-08T12:52:48;19.80;99.90
64634;DHT22;51043;52.406;9.690;2023-08-08T12:55:18;20.20;99.90
64634;DHT22;51043;52.406;9.690;2023-08-08T12:57:46;20.30;99.90
64634;DHT22;51043;52.406;9.690;2023-08-08T13:00:15;19.90;99.90
64634;DHT22;51043;52.406;9.690;2023-08-08T13:02:44;18.90;99.90
64634;DHT22;51043;52.406;9.690;2023-08-08T13:05:12;17.40;99.90
64634;DHT22;51043;52.406;9.690;2023-08-08T13:07:41;16.10;99.90
64634;DHT22;51043;52.406;9.690;2023-08-08T13:10:09;15.20;99.90
64634;DHT22;51043;52.406;9.690;2023-08-08T13:12:39;14.90;99.90
64634;DHT22;51043;52.406;9.690;2023-08-08T13:15:08;14.70;99.90
64634;DHT22;51043;52.406;9.690;2023-08-08T13:17:37;14.60;99.90
64634;DHT22;51043;52.406;9.690;2023-08-08T13:20:06;14.70;99.90
64634;DHT22;51043;52.406;9.690;2023-08-08T13:22:35;15.20;99.90
64634;DHT22;51043;52.406;9.690;2023-08-08T13:25:05;15.50;99.90
64634;DHT22;51043;52.406;9.690;2023-08-08T13:27:33;15.50;99.90
64634;DHT22;51043;52.406;9.690;2023-08-08T13:30:04;15.40;99.90
64634;DHT22;51043;52.406;9.690;2023-08-08T13:32:32;15.50;99.90
64634;DHT22;51043;52.406;9.690;2023-08-08T13:35:02;16.20;99.90
64634;DHT22;51043;52.406;9.690;2023-08-08T13:37:31;17.30;99.90
64634;DHT22;51043;52.406;9.690;2023-08-08T13:40:00;18.00;99.90
64634;DHT22;51043;52.406;9.690;2023-08-08T13:42:28;18.70;99.90
64634;DHT22;51043;52.406;9.690;2023-08-08T13:44:56;19.60;99.90
64634;DHT22;51043;52.406;9.690;2023-08-08T13:47:26;20.00;99.90
64634;DHT22;51043;52.406;9.690;2023-08-08T13:49:54;19.40;99.90
64634;DHT22;51043;52.406;9.690;2023-08-08T13:52:22;18.70;99.90
64634;DHT22;51043;52.406;9.690;2023-08-08T13:54:51;18.20;99.90
64634;DHT22;51043;52.406;9.690;2023-08-08T13:57:19;17.80;99.90
64634;DHT22;51043;52.406;9.690;2023-08-08T13:59:47;17.50;99.90
64634;DHT22;51043;52.406;9.690;2023-08-08T14:02:18;17.00;99.90
64634;DHT22;51043;52.406;9.690;2023-08-08T14:04:48;16.50;99.90
64634;DHT22;51043;52.406;9.690;2023-08-08T14:07:16;16.00;99.90
64634;DHT22;51043;52.406;9.690;2023-08-08T14:09:48;15.80;99.90
64634;DHT22;51043;52.406;9.690;2023-08-08T14:12:20;15.70;99.90
64634;DHT22;51043;52.406;9.690;2023-08-08T14:14:49;15.70;99.90
64634;DHT22;51043;52.406;9.690;2023-08-08T14:17:20;16.30;99.90
64634;DHT22;51043;52.406;9.690;2023-08-08T14:19:50;17.00;99.90
64634;DHT22;51043;52.406;9.690;2023-08-08T14:22:18;17.20;99.90
64634;DHT22;51043;52.406;9.690;2023-08-08T14:24:46;17.30;99.90
64634;DHT22;51043;52.406;9.690;2023-08-08T14:27:15;17.50;99.90
64634;DHT22;51043;52.406;9.690;2023-08-08T14:29:43;18.30;99.90
64634;DHT22;51043;52.406;9.690;2023-08-08T14:32:11;19.70;99.90
64634;DHT22;51043;52.406;9.690;2023-08-08T14:34:40;21.10;99.90
64634;DHT22;51043;52.406;9.690;2023-08-08T14:37:09;21.10;99.90
64634;DHT22;51043;52.406;9.690;2023-08-08T14:39:37;20.30;99.90
64634;DHT22;51043;52.406;9.690;2023-08-08T14:42:06;19.30;99.90
64634;DHT22;51043;52.406;9.690;2023-08-08T14:44:34;18.30;99.90
64634;DHT22;51043;52.406;9.690;2023-08-08T14:47:02;17.30;99.90
64634;DHT22;51043;52.406;9.690;2023-08-08T14:49:30;16.30;99.90
64634;DHT22;51043;52.406;9.690;2023-08-08T14:51:59;15.60;99.90
64634;DHT22;51043;52.406;9.690;2023-08-08T14:54:28;15.20;99.90
64634;DHT22;51043;52.406;9.690;2023-08-08T14:56:56;14.90;99.90
64634;DHT22;51043;52.406;9.690;2023-08-08T14:59:26;14.90;99.90
64634;DHT22;51043;52.406;9.690;2023-08-08T15:01:54;14.90;99.90
64634;DHT22;51043;52.406;9.690;2023-08-08T15:04:23;15.10;99.90
64634;DHT22;51043;52.406;9.690;2023-08-08T15:06:51;15.40;99.90
64634;DHT22;51043;52.406;9.690;2023-08-08T15:09:19;15.60;99.90
64634;DHT22;51043;52.406;9.690;2023-08-08T15:11:48;15.80;99.90
64634;DHT22;51043;52.406;9.690;2023-08-08T15:14:17;16.00;99.90
64634;DHT22;51043;52.406;9.690;2023-08-08T15:16:49;16.30;99.90
64634;DHT22;51043;52.406;9.690;2023-08-08T15:19:17;16.40;99.90
64634;DHT22;51043;52.406;9.690;2023-08-08T15:21:46;16.40;99.90
64634;DHT22;51043;52.406;9.690;2023-08-08T15:24:14;16.40;99.90
64634;DHT22;51043;52.406;9.690;2023-08-08T15:26:43;16.50;99.90
64634;DHT22;51043;52.406;9.690;2023-08-08T15:29:12;16.80;99.90
64634;DHT22;51043;52.406;9.690;2023-08-08T15:31:40;16.90;99.90
64634;DHT22;51043;52.406;9.690;2023-08-08T15:34:08;16.90;99.90
64634;DHT22;51043;52.406;9.690;2023-08-08T15:36:36;16.80;99.90
64634;DHT22;51043;52.406;9.690;2023-08-08T15:39:05;16.80;99.90
64634;DHT22;51043;52.406;9.690;2023-08-08T15:41:33;16.80;99.90
64634;DHT22;51043;52.406;9.690;2023-08-08T15:44:03;16.90;99.90
64634;DHT22;51043;52.406;9.690;2023-08-08T15:46:32;17.00;99.90